sensor_id;sensor_type;location;lat;lon;timestamp;temperature;humidity
19340;HTU21D;9804;52.350;6.684;2023-05-14T00:00:22;16.55;-6.00
19340;HTU21D;9804;52.350;6.684;2023-05-14T00:02:47;16.47;-6.00
19340;HTU21D;9804;52.350;6.684;2023-05-14T00:05:13;16.36;-6.00
19340;HTU21D;9804;52.350;6.684;2023-05-14T00:07:38;16.39;-6.00
19340;HTU21D;9804;52.350;6.684;2023-05-14T00:10:04;16.30;-6.00
19340;HTU21D;9804;52.350;6.684;2023-05-14T00:12:31;16.19;-6.00
19340;HTU21D;9804;52.350;6.684;2023-05-14T00:14:56;16.16;-6.00
19340;HTU21D;9804;52.350;6.684;2023-05-14T00:17:22;16.19;-6.00
19340;HTU21D;9804;52.350;6.684;2023-05-14T00:19:47;16.13;-6.00
19340;HTU21D;9804;52.350;6.684;2023-05-14T00:22:13;16.06;-6.00
19340;HTU21D;9804;52.350;6.684;2023-05-14T00:24:38;16.14;-6.00
19340;HTU21D;9804;52.350;6.684;2023-05-14T00:27:04;16.33;-6.00
19340;HTU21D;9804;52.350;6.684;2023-05-14T00:29:29;16.35;-6.00
19340;HTU21D;9804;52.350;6.684;2023-05-14T00:31:54;16.30;-6.00
19340;HTU21D;9804;52.350;6.684;2023-05-14T00:34:20;16.33;-6.00
19340;HTU21D;9804;52.350;6.684;2023-05-14T00:36:46;16.44;-6.00
19340;HTU21D;9804;52.350;6.684;2023-05-14T00:39:12;16.17;-6.00
19340;HTU21D;9804;52.350;6.684;2023-05-14T00:41:37;16.25;-6.00
19340;HTU21D;9804;52.350;6.684;2023-05-14T00:44:03;16.13;-6.00
19340;HTU21D;9804;52.350;6.684;2023-05-14T00:46:28;16.07;-6.00
19340;HTU21D;9804;52.350;6.684;2023-05-14T00:48:54;16.16;-6.00
19340;HTU21D;9804;52.350;6.684;2023-05-14T00:51:19;16.07;-6.00
19340;HTU21D;9804;52.350;6.684;2023-05-14T00:53:46;16.17;-6.00
19340;HTU21D;9804;52.350;6.684;2023-05-14T00:56:12;16.02;-6.00
19340;HTU21D;9804;52.350;6.684;2023-05-14T00:58:38;16.14;-6.00
19340;HTU21D;9804;52.350;6.684;2023-05-14T01:01:04;15.95;-6.00
19340;HTU21D;9804;52.350;6.684;2023-05-14T01:03:29;16.10;-6.00
19340;HTU21D;9804;52.350;6.684;2023-05-14T01:09:03;15.88;-6.00
19340;HTU21D;9804;52.350;6.684;2023-05-14T01:14:47;15.91;-6.00
19340;HTU21D;9804;52.350;6.684;2023-05-14T01:17:14;15.80;-6.00
19340;HTU21D;9804;52.350;6.684;2023-05-14T01:19:45;15.81;-6.00
19340;HTU21D;9804;52.350;6.684;2023-05-14T01:22:11;15.66;-6.00
19340;HTU21D;9804;52.350;6.684;2023-05-14T01:24:37;15.47;-6.00
19340;HTU21D;9804;52.350;6.684;2023-05-14T01:29:36;15.30;-6.00
19340;HTU21D;9804;52.350;6.684;2023-05-14T01:32:05;15.14;-6.00
19340;HTU21D;9804;52.350;6.684;2023-05-14T01:34:32;15.09;-6.00
19340;HTU21D;9804;52.350;6.684;2023-05-14T01:36:59;15.09;-6.00
19340;HTU21D;9804;52.350;6.684;2023-05-14T01:39:26;15.07;-6.00
19340;HTU21D;9804;52.350;6.684;2023-05-14T01:41:52;15.02;-6.00
19340;HTU21D;9804;52.350;6.684;2023-05-14T01:44:18;15.08;-6.00
19340;HTU21D;9804;52.350;6.684;2023-05-14T01:46:44;15.14;-6.00
19340;HTU21D;9804;52.350;6.684;2023-05-14T01:49:09;15.09;-6.00
19340;HTU21D;9804;52.350;6.684;2023-05-14T01:51:35;14.98;-6.00
19340;HTU21D;9804;52.350;6.684;2023-05-14T01:54:00;14.88;-6.00
19340;HTU21D;9804;52.350;6.684;2023-05-14T01:56:25;14.93;-6.00
19340;HTU21D;9804;52.350;6.684;2023-05-14T01:58:51;14.79;-6.00
19340;HTU21D;9804;52.350;6.684;2023-05-14T02:01:16;14.83;-6.00
19340;HTU21D;9804;52.350;6.684;2023-05-14T02:03:42;14.75;-6.00
19340;HTU21D;9804;52.350;6.684;2023-05-14T02:06:07;14.79;-6.00
19340;HTU21D;9804;52.350;6.684;2023-05-14T02:08:32;14.75;-6.00
19340;HTU21D;9804;52.350;6.684;2023-05-14T02:10:58;14.64;-6.00
19340;HTU21D;9804;52.350;6.684;2023-05-14T02:13:24;14.65;-6.00
19340;HTU21D;9804;52.350;6.684;2023-05-14T02:15:50;14.63;-6.00
19340;HTU21D;9804;52.350;6.684;2023-05-14T02:18:15;14.54;-6.00
19340;HTU21D;9804;52.350;6.684;2023-05-14T02:20:40;14.59;-6.00
19340;HTU21D;9804;52.350;6.684;2023-05-14T02:23:06;14.52;-6.00
19340;HTU21D;9804;52.350;6.684;2023-05-14T02:25:31;14.36;-6.00
19340;HTU21D;9804;52.350;6.684;2023-05-14T02:27:57;14.40;-6.00
19340;HTU21D;9804;52.350;6.684;2023-05-14T02:30:22;14.30;-6.00
19340;HTU21D;9804;52.350;6.684;2023-05-14T02:32:48;14.29;-6.00
19340;HTU21D;9804;52.350;6.684;2023-05-14T02:35:13;14.22;-6.00
19340;HTU21D;9804;52.350;6.684;2023-05-14T02:37:38;14.15;-6.00
19340;HTU21D;9804;52.350;6.684;2023-05-14T02:40:04;14.00;-6.00
19340;HTU21D;9804;52.350;6.684;2023-05-14T02:42:30;14.20;-6.00
19340;HTU21D;9804;52.350;6.684;2023-05-14T02:44:57;14.09;-6.00
19340;HTU21D;9804;52.350;6.684;2023-05-14T02:47:22;13.99;-6.00
19340;HTU21D;9804;52.350;6.684;2023-05-14T02:49:47;13.91;-6.00
19340;HTU21D;9804;52.350;6.684;2023-05-14T02:52:13;13.93;-6.00
19340;HTU21D;9804;52.350;6.684;2023-05-14T02:54:38;13.80;-6.00
19340;HTU21D;9804;52.350;6.684;2023-05-14T02:57:04;13.85;-6.00
19340;HTU21D;9804;52.350;6.684;2023-05-14T02:59:29;13.70;-6.00
19340;HTU21D;9804;52.350;6.684;2023-05-14T03:01:55;13.80;-6.00
19340;HTU21D;9804;52.350;6.684;2023-05-14T03:04:21;13.85;-6.00
19340;HTU21D;9804;52.350;6.684;2023-05-14T03:06:46;13.85;-6.00
19340;HTU21D;9804;52.350;6.684;2023-05-14T03:09:11;13.85;-6.00
19340;HTU21D;9804;52.350;6.684;2023-05-14T03:11:37;13.77;-6.00
19340;HTU21D;9804;52.350;6.684;2023-05-14T03:14:02;13.74;-6.00
19340;HTU21D;9804;52.350;6.684;2023-05-14T03:16:27;13.82;-6.00
19340;HTU21D;9804;52.350;6.684;2023-05-14T03:18:53;14.14;-6.00
19340;HTU21D;9804;52.350;6.684;2023-05-14T03:21:18;14.01;-6.00
19340;HTU21D;9804;52.350;6.684;2023-05-14T03:23:44;14.05;-6.00
19340;HTU21D;9804;52.350;6.684;2023-05-14T03:26:09;14.07;-6.00
19340;HTU21D;9804;52.350;6.684;2023-05-14T03:28:35;14.07;-6.00
19340;HTU21D;9804;52.350;6.684;2023-05-14T03:31:00;13.83;-6.00
19340;HTU21D;9804;52.350;6.684;2023-05-14T03:33:25;13.83;-6.00
19340;HTU21D;9804;52.350;6.684;2023-05-14T03:35:51;13.78;-6.00
19340;HTU21D;9804;52.350;6.684;2023-05-14T03:38:16;13.56;-6.00
19340;HTU21D;9804;52.350;6.684;2023-05-14T03:40:43;13.63;-6.00
19340;HTU21D;9804;52.350;6.684;2023-05-14T03:43:09;13.66;-6.00
19340;HTU21D;9804;52.350;6.684;2023-05-14T03:45:34;13.61;-6.00
19340;HTU21D;9804;52.350;6.684;2023-05-14T03:47:59;13.67;-6.00
19340;HTU21D;9804;52.350;6.684;2023-05-14T03:50:25;13.68;-6.00
19340;HTU21D;9804;52.350;6.684;2023-05-14T03:52:51;13.75;-6.00
19340;HTU21D;9804;52.350;6.684;2023-05-14T03:55:18;13.75;-6.00
19340;HTU21D;9804;52.350;6.684;2023-05-14T03:57:44;13.69;-6.00
19340;HTU21D;9804;52.350;6.684;2023-05-14T04:00:10;13.65;-6.00
19340;HTU21D;9804;52.350;6.684;2023-05-14T04:02:35;13.74;-6.00
19340;HTU21D;9804;52.350;6.684;2023-05-14T04:05:01;13.82;-6.00
19340;HTU21D;9804;52.350;6.684;2023-05-14T04:07:26;13.86;-6.00
19340;HTU21D;9804;52.350;6.684;2023-05-14T04:09:51;13.81;-6.00
19340;HTU21D;9804;52.350;6.684;2023-05-14T04:12:17;13.80;-6.00
19340;HTU21D;9804;52.350;6.684;2023-05-14T04:14:42;13.71;-6.00
19340;HTU21D;9804;52.350;6.684;2023-05-14T04:17:07;13.73;-6.00
19340;HTU21D;9804;52.350;6.684;2023-05-14T04:19:33;13.83;-6.00
19340;HTU21D;9804;52.350;6.684;2023-05-14T04:21:58;13.79;-6.00
19340;HTU21D;9804;52.350;6.684;2023-05-14T04:24:23;13.80;-6.00
19340;HTU21D;9804;52.350;6.684;2023-05-14T04:26:49;13.77;-6.00
19340;HTU21D;9804;52.350;6.684;2023-05-14T04:29:14;13.84;-6.00
19340;HTU21D;9804;52.350;6.684;2023-05-14T04:31:40;13.93;-6.00
19340;HTU21D;9804;52.350;6.684;2023-05-14T04:34:06;13.91;-6.00
19340;HTU21D;9804;52.350;6.684;2023-05-14T04:36:31;13.78;-6.00
19340;HTU21D;9804;52.350;6.684;2023-05-14T04:38:56;13.92;-6.00
19340;HTU21D;9804;52.350;6.684;2023-05-14T04:41:22;14.24;-6.00
19340;HTU21D;9804;52.350;6.684;2023-05-14T04:43:48;14.27;-6.00
19340;HTU21D;9804;52.350;6.684;2023-05-14T04:46:14;14.22;-6.00
19340;HTU21D;9804;52.350;6.684;2023-05-14T04:48:39;14.39;-6.00
19340;HTU21D;9804;52.350;6.684;2023-05-14T04:51:05;14.37;-6.00
19340;HTU21D;9804;52.350;6.684;2023-05-14T04:53:31;14.35;-6.00
19340;HTU21D;9804;52.350;6.684;2023-05-14T04:55:56;14.74;-6.00
19340;HTU21D;9804;52.350;6.684;2023-05-14T04:58:22;14.63;-6.00
19340;HTU21D;9804;52.350;6.684;2023-05-14T05:00:48;14.72;-6.00
19340;HTU21D;9804;52.350;6.684;2023-05-14T05:03:14;14.66;-6.00
19340;HTU21D;9804;52.350;6.684;2023-05-14T05:05:39;14.91;-6.00
19340;HTU21D;9804;52.350;6.684;2023-05-14T05:08:04;15.06;-6.00
19340;HTU21D;9804;52.350;6.684;2023-05-14T05:10:30;15.21;-6.00
19340;HTU21D;9804;52.350;6.684;2023-05-14T05:12:55;15.37;-6.00
19340;HTU21D;9804;52.350;6.684;2023-05-14T05:15:21;15.38;-6.00
19340;HTU21D;9804;52.350;6.684;2023-05-14T05:17:46;15.39;-6.00
19340;HTU21D;9804;52.350;6.684;2023-05-14T05:20:11;15.30;-6.00
19340;HTU21D;9804;52.350;6.684;2023-05-14T05:22:37;15.51;-6.00
19340;HTU21D;9804;52.350;6.684;2023-05-14T05:25:03;15.66;-6.00
19340;HTU21D;9804;52.350;6.684;2023-05-14T05:27:32;15.71;-6.00
19340;HTU21D;9804;52.350;6.684;2023-05-14T05:29:59;15.90;-6.00
19340;HTU21D;9804;52.350;6.684;2023-05-14T05:32:24;15.81;-6.00
19340;HTU21D;9804;52.350;6.684;2023-05-14T05:34:50;15.78;-6.00
19340;HTU21D;9804;52.350;6.684;2023-05-14T05:37:16;15.66;-6.00
19340;HTU21D;9804;52.350;6.684;2023-05-14T05:39:41;15.98;-6.00
19340;HTU21D;9804;52.350;6.684;2023-05-14T05:42:07;16.03;-6.00
19340;HTU21D;9804;52.350;6.684;2023-05-14T05:44:32;15.91;-6.00
19340;HTU21D;9804;52.350;6.684;2023-05-14T05:46:58;15.77;-6.00
19340;HTU21D;9804;52.350;6.684;2023-05-14T05:49:23;15.91;-6.00
19340;HTU21D;9804;52.350;6.684;2023-05-14T05:51:48;15.95;-6.00
19340;HTU21D;9804;52.350;6.684;2023-05-14T05:54:14;16.26;-6.00
19340;HTU21D;9804;52.350;6.684;2023-05-14T05:56:39;16.12;-6.00
19340;HTU21D;9804;52.350;6.684;2023-05-14T05:59:05;16.33;-6.00
19340;HTU21D;9804;52.350;6.684;2023-05-14T06:01:30;16.55;-6.00
19340;HTU21D;9804;52.350;6.684;2023-05-14T06:03:56;16.55;-6.00
19340;HTU21D;9804;52.350;6.684;2023-05-14T06:06:21;16.36;-6.00
19340;HTU21D;9804;52.350;6.684;2023-05-14T06:08:47;16.54;-6.00
19340;HTU21D;9804;52.350;6.684;2023-05-14T06:11:12;16.54;-6.00
19340;HTU21D;9804;52.350;6.684;2023-05-14T06:13:38;16.47;-6.00
19340;HTU21D;9804;52.350;6.684;2023-05-14T06:16:03;16.36;-6.00
19340;HTU21D;9804;52.350;6.684;2023-05-14T06:18:28;16.49;-6.00
19340;HTU21D;9804;52.350;6.684;2023-05-14T06:20:54;16.76;-6.00
19340;HTU21D;9804;52.350;6.684;2023-05-14T06:23:21;16.36;-6.00
19340;HTU21D;9804;52.350;6.684;2023-05-14T06:25:48;16.48;-6.00
19340;HTU21D;9804;52.350;6.684;2023-05-14T06:28:13;17.08;-6.00
19340;HTU21D;9804;52.350;6.684;2023-05-14T06:30:38;17.17;-6.00
19340;HTU21D;9804;52.350;6.684;2023-05-14T06:33:04;17.19;-6.00
19340;HTU21D;9804;52.350;6.684;2023-05-14T06:35:29;17.06;-6.00
19340;HTU21D;9804;52.350;6.684;2023-05-14T06:37:54;17.19;-6.00
19340;HTU21D;9804;52.350;6.684;2023-05-14T06:40:20;16.93;-6.00
19340;HTU21D;9804;52.350;6.684;2023-05-14T06:42:45;16.70;-6.00
19340;HTU21D;9804;52.350;6.684;2023-05-14T06:45:11;17.14;-6.00
19340;HTU21D;9804;52.350;6.684;2023-05-14T06:47:36;17.54;-6.00
19340;HTU21D;9804;52.350;6.684;2023-05-14T06:50:01;17.64;-6.00
19340;HTU21D;9804;52.350;6.684;2023-05-14T06:52:27;17.78;-6.00
19340;HTU21D;9804;52.350;6.684;2023-05-14T06:54:52;17.53;-6.00
19340;HTU21D;9804;52.350;6.684;2023-05-14T06:57:17;17.79;-6.00
19340;HTU21D;9804;52.350;6.684;2023-05-14T06:59:43;17.92;-6.00
19340;HTU21D;9804;52.350;6.684;2023-05-14T07:02:08;17.73;-6.00
19340;HTU21D;9804;52.350;6.684;2023-05-14T07:04:33;17.60;-6.00
19340;HTU21D;9804;52.350;6.684;2023-05-14T07:07:00;18.05;-6.00
19340;HTU21D;9804;52.350;6.684;2023-05-14T07:09:25;18.13;-6.00
19340;HTU21D;9804;52.350;6.684;2023-05-14T07:11:51;18.03;-6.00
19340;HTU21D;9804;52.350;6.684;2023-05-14T07:14:16;18.22;-6.00
19340;HTU21D;9804;52.350;6.684;2023-05-14T07:16:41;18.73;-6.00
19340;HTU21D;9804;52.350;6.684;2023-05-14T07:19:07;18.66;-6.00
19340;HTU21D;9804;52.350;6.684;2023-05-14T07:21:34;18.77;-6.00
19340;HTU21D;9804;52.350;6.684;2023-05-14T07:23:59;18.72;-6.00
19340;HTU21D;9804;52.350;6.684;2023-05-14T07:26:25;18.47;-6.00
19340;HTU21D;9804;52.350;6.684;2023-05-14T07:28:50;18.89;-6.00
19340;HTU21D;9804;52.350;6.684;2023-05-14T07:31:15;18.80;-6.00
19340;HTU21D;9804;52.350;6.684;2023-05-14T07:33:41;18.76;-6.00
19340;HTU21D;9804;52.350;6.684;2023-05-14T07:36:06;19.10;-6.00
19340;HTU21D;9804;52.350;6.684;2023-05-14T07:38:32;19.09;-6.00
19340;HTU21D;9804;52.350;6.684;2023-05-14T07:40:57;19.22;-6.00
19340;HTU21D;9804;52.350;6.684;2023-05-14T07:43:23;19.81;-6.00
19340;HTU21D;9804;52.350;6.684;2023-05-14T07:45:48;19.68;-6.00
19340;HTU21D;9804;52.350;6.684;2023-05-14T07:48:14;19.70;-6.00
19340;HTU21D;9804;52.350;6.684;2023-05-14T07:50:39;19.46;-6.00
19340;HTU21D;9804;52.350;6.684;2023-05-14T07:53:05;19.99;-6.00
19340;HTU21D;9804;52.350;6.684;2023-05-14T07:55:30;20.39;-6.00
19340;HTU21D;9804;52.350;6.684;2023-05-14T07:57:55;20.34;-6.00
19340;HTU21D;9804;52.350;6.684;2023-05-14T08:00:21;20.51;-6.00
19340;HTU21D;9804;52.350;6.684;2023-05-14T08:02:47;19.81;-6.00
19340;HTU21D;9804;52.350;6.684;2023-05-14T08:05:13;20.40;-6.00
19340;HTU21D;9804;52.350;6.684;2023-05-14T08:07:38;20.75;-6.00
19340;HTU21D;9804;52.350;6.684;2023-05-14T08:10:04;20.83;-6.00
19340;HTU21D;9804;52.350;6.684;2023-05-14T08:12:31;20.66;-6.00
19340;HTU21D;9804;52.350;6.684;2023-05-14T08:14:57;20.93;-6.00
19340;HTU21D;9804;52.350;6.684;2023-05-14T08:17:22;20.90;-6.00
19340;HTU21D;9804;52.350;6.684;2023-05-14T08:19:48;21.07;-6.00
19340;HTU21D;9804;52.350;6.684;2023-05-14T08:22:14;21.20;-6.00
19340;HTU21D;9804;52.350;6.684;2023-05-14T08:24:39;21.53;-6.00
19340;HTU21D;9804;52.350;6.684;2023-05-14T08:27:04;21.30;-6.00
19340;HTU21D;9804;52.350;6.684;2023-05-14T08:29:30;21.80;-6.00
19340;HTU21D;9804;52.350;6.684;2023-05-14T08:31:56;22.09;-6.00
19340;HTU21D;9804;52.350;6.684;2023-05-14T08:34:21;21.67;-6.00
19340;HTU21D;9804;52.350;6.684;2023-05-14T08:36:46;21.44;-6.00
19340;HTU21D;9804;52.350;6.684;2023-05-14T08:39:12;20.45;-6.00
19340;HTU21D;9804;52.350;6.684;2023-05-14T08:41:38;21.77;-6.00
19340;HTU21D;9804;52.350;6.684;2023-05-14T08:46:39;22.03;-6.00
19340;HTU21D;9804;52.350;6.684;2023-05-14T08:49:16;22.13;-6.00
19340;HTU21D;9804;52.350;6.684;2023-05-14T08:51:45;22.48;-6.00
19340;HTU21D;9804;52.350;6.684;2023-05-14T08:54:15;22.49;-6.00
19340;HTU21D;9804;52.350;6.684;2023-05-14T08:56:43;22.28;-6.00
19340;HTU21D;9804;52.350;6.684;2023-05-14T08:59:09;22.41;-6.00
19340;HTU21D;9804;52.350;6.684;2023-05-14T09:01:36;22.46;-6.00
19340;HTU21D;9804;52.350;6.684;2023-05-14T09:04:02;22.36;-6.00
19340;HTU21D;9804;52.350;6.684;2023-05-14T09:06:36;22.32;-6.00
19340;HTU21D;9804;52.350;6.684;2023-05-14T09:09:02;21.95;-6.00
19340;HTU21D;9804;52.350;6.684;2023-05-14T09:11:28;21.89;-6.00
19340;HTU21D;9804;52.350;6.684;2023-05-14T09:13:53;21.31;-6.00
19340;HTU21D;9804;52.350;6.684;2023-05-14T09:16:19;22.21;-6.00
19340;HTU21D;9804;52.350;6.684;2023-05-14T09:18:46;22.41;-6.00
19340;HTU21D;9804;52.350;6.684;2023-05-14T09:21:14;22.46;-6.00
19340;HTU21D;9804;52.350;6.684;2023-05-14T09:23:43;22.41;-6.00
19340;HTU21D;9804;52.350;6.684;2023-05-14T09:26:10;22.48;-6.00
19340;HTU21D;9804;52.350;6.684;2023-05-14T09:28:38;22.58;-6.00
19340;HTU21D;9804;52.350;6.684;2023-05-14T09:31:04;22.60;-6.00
19340;HTU21D;9804;52.350;6.684;2023-05-14T09:33:30;22.93;-6.00
19340;HTU21D;9804;52.350;6.684;2023-05-14T09:36:00;23.05;-6.00
19340;HTU21D;9804;52.350;6.684;2023-05-14T09:38:32;22.78;-6.00
19340;HTU21D;9804;52.350;6.684;2023-05-14T09:40:59;22.63;-6.00
19340;HTU21D;9804;52.350;6.684;2023-05-14T09:43:25;23.17;-6.00
19340;HTU21D;9804;52.350;6.684;2023-05-14T09:45:53;23.40;-6.00
19340;HTU21D;9804;52.350;6.684;2023-05-14T09:48:19;23.57;-6.00
19340;HTU21D;9804;52.350;6.684;2023-05-14T09:50:45;22.85;-6.00
19340;HTU21D;9804;52.350;6.684;2023-05-14T09:53:12;23.60;-6.00
19340;HTU21D;9804;52.350;6.684;2023-05-14T09:55:38;23.62;-6.00
19340;HTU21D;9804;52.350;6.684;2023-05-14T09:58:03;23.49;-6.00
19340;HTU21D;9804;52.350;6.684;2023-05-14T10:00:31;23.50;-6.00
19340;HTU21D;9804;52.350;6.684;2023-05-14T10:02:57;23.84;-6.00
19340;HTU21D;9804;52.350;6.684;2023-05-14T10:05:23;23.86;-6.00
19340;HTU21D;9804;52.350;6.684;2023-05-14T10:07:50;23.70;-6.00
19340;HTU21D;9804;52.350;6.684;2023-05-14T10:10:23;24.34;-6.00
19340;HTU21D;9804;52.350;6.684;2023-05-14T10:12:52;24.55;-6.00
19340;HTU21D;9804;52.350;6.684;2023-05-14T10:15:33;24.95;-6.00
19340;HTU21D;9804;52.350;6.684;2023-05-14T10:18:05;25.46;-6.00
19340;HTU21D;9804;52.350;6.684;2023-05-14T10:20:32;25.10;-6.00
19340;HTU21D;9804;52.350;6.684;2023-05-14T10:22:59;24.98;-6.00
19340;HTU21D;9804;52.350;6.684;2023-05-14T10:25:25;24.62;-6.00
19340;HTU21D;9804;52.350;6.684;2023-05-14T10:27:51;24.42;-6.00
19340;HTU21D;9804;52.350;6.684;2023-05-14T10:30:20;24.57;-6.00
19340;HTU21D;9804;52.350;6.684;2023-05-14T10:32:45;24.83;-6.00
19340;HTU21D;9804;52.350;6.684;2023-05-14T10:35:15;25.14;-6.00
19340;HTU21D;9804;52.350;6.684;2023-05-14T10:37:43;24.64;-6.00
19340;HTU21D;9804;52.350;6.684;2023-05-14T10:40:08;24.95;-6.00
19340;HTU21D;9804;52.350;6.684;2023-05-14T10:42:36;25.16;-6.00
19340;HTU21D;9804;52.350;6.684;2023-05-14T10:45:14;25.44;-6.00
19340;HTU21D;9804;52.350;6.684;2023-05-14T10:47:46;24.97;-6.00
19340;HTU21D;9804;52.350;6.684;2023-05-14T10:50:14;25.22;-6.00
19340;HTU21D;9804;52.350;6.684;2023-05-14T10:52:40;25.15;-6.00
19340;HTU21D;9804;52.350;6.684;2023-05-14T10:55:07;24.70;-6.00
19340;HTU21D;9804;52.350;6.684;2023-05-14T10:57:36;24.61;-6.00
19340;HTU21D;9804;52.350;6.684;2023-05-14T11:00:02;25.00;-6.00
19340;HTU21D;9804;52.350;6.684;2023-05-14T11:02:31;25.30;-6.00
19340;HTU21D;9804;52.350;6.684;2023-05-14T11:07:47;25.42;-6.00
19340;HTU21D;9804;52.350;6.684;2023-05-14T11:10:17;25.96;-6.00
19340;HTU21D;9804;52.350;6.684;2023-05-14T11:12:45;26.05;-6.00
19340;HTU21D;9804;52.350;6.684;2023-05-14T11:15:13;25.84;-6.00
19340;HTU21D;9804;52.350;6.684;2023-05-14T11:17:40;25.60;-6.00
19340;HTU21D;9804;52.350;6.684;2023-05-14T11:20:06;26.20;-6.00
19340;HTU21D;9804;52.350;6.684;2023-05-14T11:22:32;25.82;-6.00
19340;HTU21D;9804;52.350;6.684;2023-05-14T11:24:58;26.47;-6.00
19340;HTU21D;9804;52.350;6.684;2023-05-14T11:27:23;26.10;-6.00
19340;HTU21D;9804;52.350;6.684;2023-05-14T11:29:49;25.76;-6.00
19340;HTU21D;9804;52.350;6.684;2023-05-14T11:32:15;25.77;-6.00
19340;HTU21D;9804;52.350;6.684;2023-05-14T11:34:42;26.52;-6.00
19340;HTU21D;9804;52.350;6.684;2023-05-14T11:37:12;26.94;-6.00
19340;HTU21D;9804;52.350;6.684;2023-05-14T11:39:38;26.63;-6.00
19340;HTU21D;9804;52.350;6.684;2023-05-14T11:42:08;26.62;-6.00
19340;HTU21D;9804;52.350;6.684;2023-05-14T11:44:34;26.50;-6.00
19340;HTU21D;9804;52.350;6.684;2023-05-14T11:46:59;25.94;-6.00
19340;HTU21D;9804;52.350;6.684;2023-05-14T11:49:29;25.82;-6.00
19340;HTU21D;9804;52.350;6.684;2023-05-14T11:51:58;25.84;-6.00
19340;HTU21D;9804;52.350;6.684;2023-05-14T11:54:25;26.06;-6.00
19340;HTU21D;9804;52.350;6.684;2023-05-14T11:56:51;26.37;-6.00
19340;HTU21D;9804;52.350;6.684;2023-05-14T11:59:17;26.45;-6.00
19340;HTU21D;9804;52.350;6.684;2023-05-14T12:01:44;26.39;-6.00
19340;HTU21D;9804;52.350;6.684;2023-05-14T12:04:11;26.42;-6.00
19340;HTU21D;9804;52.350;6.684;2023-05-14T12:06:37;26.81;-6.00
19340;HTU21D;9804;52.350;6.684;2023-05-14T12:09:04;26.52;-6.00
19340;HTU21D;9804;52.350;6.684;2023-05-14T12:11:30;26.55;-6.00
19340;HTU21D;9804;52.350;6.684;2023-05-14T12:13:57;26.63;-6.00
19340;HTU21D;9804;52.350;6.684;2023-05-14T12:16:22;26.86;-6.00
19340;HTU21D;9804;52.350;6.684;2023-05-14T12:18:47;26.97;-6.00
19340;HTU21D;9804;52.350;6.684;2023-05-14T12:21:13;26.63;-6.00
19340;HTU21D;9804;52.350;6.684;2023-05-14T12:23:38;26.67;-6.00
19340;HTU21D;9804;52.350;6.684;2023-05-14T12:26:05;26.40;-6.00
19340;HTU21D;9804;52.350;6.684;2023-05-14T12:28:31;26.82;-6.00
19340;HTU21D;9804;52.350;6.684;2023-05-14T12:30:57;26.68;-6.00
19340;HTU21D;9804;52.350;6.684;2023-05-14T12:33:24;26.64;-6.00
19340;HTU21D;9804;52.350;6.684;2023-05-14T12:35:53;27.17;-6.00
19340;HTU21D;9804;52.350;6.684;2023-05-14T12:38:25;27.35;-6.00
19340;HTU21D;9804;52.350;6.684;2023-05-14T12:40:50;27.58;-6.00
19340;HTU21D;9804;52.350;6.684;2023-05-14T12:43:16;27.70;-6.00
19340;HTU21D;9804;52.350;6.684;2023-05-14T12:45:41;27.38;-6.00
19340;HTU21D;9804;52.350;6.684;2023-05-14T12:48:06;27.41;-6.00
19340;HTU21D;9804;52.350;6.684;2023-05-14T12:50:32;27.19;-6.00
19340;HTU21D;9804;52.350;6.684;2023-05-14T12:52:57;27.44;-6.00
19340;HTU21D;9804;52.350;6.684;2023-05-14T12:55:22;27.29;-6.00
19340;HTU21D;9804;52.350;6.684;2023-05-14T12:57:48;27.59;-6.00
19340;HTU21D;9804;52.350;6.684;2023-05-14T13:00:14;28.11;-6.00
19340;HTU21D;9804;52.350;6.684;2023-05-14T13:02:39;28.08;-6.00
19340;HTU21D;9804;52.350;6.684;2023-05-14T13:05:05;27.83;-6.00
19340;HTU21D;9804;52.350;6.684;2023-05-14T13:07:30;27.53;-6.00
19340;HTU21D;9804;52.350;6.684;2023-05-14T13:09:56;27.69;-6.00
19340;HTU21D;9804;52.350;6.684;2023-05-14T13:12:22;27.71;-6.00
19340;HTU21D;9804;52.350;6.684;2023-05-14T13:14:47;27.01;-6.00
19340;HTU21D;9804;52.350;6.684;2023-05-14T13:17:13;27.90;-6.00
19340;HTU21D;9804;52.350;6.684;2023-05-14T13:19:38;28.03;-6.00
19340;HTU21D;9804;52.350;6.684;2023-05-14T13:22:03;27.34;-6.00
19340;HTU21D;9804;52.350;6.684;2023-05-14T13:24:29;27.74;-6.00
19340;HTU21D;9804;52.350;6.684;2023-05-14T13:26:54;27.95;-6.00
19340;HTU21D;9804;52.350;6.684;2023-05-14T13:29:19;28.12;-6.00
19340;HTU21D;9804;52.350;6.684;2023-05-14T13:31:45;28.19;-6.00
19340;HTU21D;9804;52.350;6.684;2023-05-14T13:34:10;28.60;-6.00
19340;HTU21D;9804;52.350;6.684;2023-05-14T13:36:37;28.53;-6.00
19340;HTU21D;9804;52.350;6.684;2023-05-14T13:39:05;28.62;-6.00
19340;HTU21D;9804;52.350;6.684;2023-05-14T13:41:30;28.55;-6.00
19340;HTU21D;9804;52.350;6.684;2023-05-14T13:43:59;28.62;-6.00
19340;HTU21D;9804;52.350;6.684;2023-05-14T13:46:24;28.25;-6.00
19340;HTU21D;9804;52.350;6.684;2023-05-14T13:48:50;27.64;-6.00
19340;HTU21D;9804;52.350;6.684;2023-05-14T13:51:15;27.36;-6.00
19340;HTU21D;9804;52.350;6.684;2023-05-14T13:53:40;27.84;-6.00
19340;HTU21D;9804;52.350;6.684;2023-05-14T13:56:06;28.04;-6.00
19340;HTU21D;9804;52.350;6.684;2023-05-14T13:58:32;27.80;-6.00
19340;HTU21D;9804;52.350;6.684;2023-05-14T14:00:58;27.91;-6.00
19340;HTU21D;9804;52.350;6.684;2023-05-14T14:03:23;27.58;-6.00
19340;HTU21D;9804;52.350;6.684;2023-05-14T14:05:49;27.27;-6.00
19340;HTU21D;9804;52.350;6.684;2023-05-14T14:08:16;27.65;-6.00
19340;HTU21D;9804;52.350;6.684;2023-05-14T14:10:41;27.66;-6.00
19340;HTU21D;9804;52.350;6.684;2023-05-14T14:13:08;27.75;-6.00
19340;HTU21D;9804;52.350;6.684;2023-05-14T14:15:33;28.09;-6.00
19340;HTU21D;9804;52.350;6.684;2023-05-14T14:17:59;27.11;-6.00
19340;HTU21D;9804;52.350;6.684;2023-05-14T14:20:24;27.76;-6.00
19340;HTU21D;9804;52.350;6.684;2023-05-14T14:22:50;27.53;-6.00
19340;HTU21D;9804;52.350;6.684;2023-05-14T14:25:15;27.69;-6.00
19340;HTU21D;9804;52.350;6.684;2023-05-14T14:27:40;27.86;-6.00
19340;HTU21D;9804;52.350;6.684;2023-05-14T14:30:09;27.70;-6.00
19340;HTU21D;9804;52.350;6.684;2023-05-14T14:32:41;27.91;-6.00
19340;HTU21D;9804;52.350;6.684;2023-05-14T14:35:07;27.94;-6.00
19340;HTU21D;9804;52.350;6.684;2023-05-14T14:37:33;27.78;-6.00
19340;HTU21D;9804;52.350;6.684;2023-05-14T14:39:58;27.86;-6.00
19340;HTU21D;9804;52.350;6.684;2023-05-14T14:42:24;27.86;-6.00
19340;HTU21D;9804;52.350;6.684;2023-05-14T14:44:49;28.00;-6.00
19340;HTU21D;9804;52.350;6.684;2023-05-14T14:47:14;28.09;-6.00
19340;HTU21D;9804;52.350;6.684;2023-05-14T14:49:40;28.32;-6.00
19340;HTU21D;9804;52.350;6.684;2023-05-14T14:52:05;28.16;-6.00
19340;HTU21D;9804;52.350;6.684;2023-05-14T14:54:30;28.26;-6.00
19340;HTU21D;9804;52.350;6.684;2023-05-14T14:56:56;27.70;-6.00
19340;HTU21D;9804;52.350;6.684;2023-05-14T14:59:21;27.61;-6.00
19340;HTU21D;9804;52.350;6.684;2023-05-14T15:01:47;27.67;-6.00
19340;HTU21D;9804;52.350;6.684;2023-05-14T15:04:12;27.29;-6.00
19340;HTU21D;9804;52.350;6.684;2023-05-14T15:06:37;27.76;-6.00
19340;HTU21D;9804;52.350;6.684;2023-05-14T15:09:03;27.70;-6.00
19340;HTU21D;9804;52.350;6.684;2023-05-14T15:11:28;28.26;-6.00
19340;HTU21D;9804;52.350;6.684;2023-05-14T15:13:54;28.25;-6.00
19340;HTU21D;9804;52.350;6.684;2023-05-14T15:16:19;27.84;-6.00
19340;HTU21D;9804;52.350;6.684;2023-05-14T15:18:44;27.93;-6.00
19340;HTU21D;9804;52.350;6.684;2023-05-14T15:21:10;28.03;-6.00
19340;HTU21D;9804;52.350;6.684;2023-05-14T15:23:35;27.94;-6.00
19340;HTU21D;9804;52.350;6.684;2023-05-14T15:26:01;27.43;-6.00
19340;HTU21D;9804;52.350;6.684;2023-05-14T15:28:26;26.51;-6.00
19340;HTU21D;9804;52.350;6.684;2023-05-14T15:30:51;26.39;-6.00
19340;HTU21D;9804;52.350;6.684;2023-05-14T15:33:17;26.91;-6.00
19340;HTU21D;9804;52.350;6.684;2023-05-14T15:35:44;26.72;-6.00